Time;durP1;ratioP1;P1;durP2;ratioP2;P2;SDS_P1;SDS_P2;PMS_P1;PMS_P2;Temp;Humidity;BMP_temperature;BMP_pressure;BME280_temperature;BME280_humidity;BME280_pressure;Samples;Min_cycle;Max_cycle;Signal;HPM_P1;HPM_P2
2022/02/13 00:01:37;;;;;;;4.80;4.30;;;-2.10;99.90;-2.60;101331.00;;;;4976762;28;88022;-67
2022/02/13 00:04:04;;;;;;;5.87;4.40;;;-2.10;99.90;-2.60;101326.00;;;;4972490;28;96668;-67
2022/02/13 00:06:30;;;;;;;5.97;3.87;;;-2.20;99.90;-2.60;101336.00;;;;4955853;28;106350;-67
2022/02/13 00:08:55;;;;;;;6.33;4.30;;;-2.50;99.90;-2.70;101333.00;;;;4957740;28;94905;-66
2022/02/13 00:11:22;;;;;;;10.77;4.90;;;-2.20;99.90;-2.70;101335.00;;;;4956258;28;108965;-66
2022/02/13 00:13:48;;;;;;;4.70;3.77;;;-2.30;99.90;-2.70;101336.00;;;;4956528;28;100605;-66
2022/02/13 00:16:16;;;;;;;4.77;3.90;;;-2.40;99.90;-2.70;101334.00;;;;4976833;28;89228;-68
2022/02/13 00:18:42;;;;;;;5.60;3.73;;;-2.30;99.90;-2.80;101329.00;;;;4958420;28;87950;-68
2022/02/13 00:21:07;;;;;;;5.63;3.83;;;-2.30;99.90;-2.80;101333.00;;;;4956361;28;94652;-66
2022/02/13 00:23:33;;;;;;;5.13;3.83;;;-2.30;99.90;-2.80;101331.00;;;;4965980;28;102083;-67
2022/02/13 00:25:59;;;;;;;5.00;4.60;;;-2.30;99.90;-2.80;101326.00;;;;4975602;28;116451;-66
2022/02/13 00:28:26;;;;;;;6.57;4.57;;;-2.30;99.90;-2.80;101320.00;;;;4976525;28;89392;-66
2022/02/13 00:30:52;;;;;;;14.97;10.00;;;-1.70;99.90;-2.80;101306.00;;;;4975841;28;88663;-66
2022/02/13 00:33:19;;;;;;;15.10;5.40;;;-2.40;99.90;-2.90;101307.00;;;;4975421;28;104885;-66
2022/02/13 00:35:46;;;;;;;5.33;4.47;;;-2.40;99.90;-2.90;101304.00;;;;4961093;28;116509;-66
2022/02/13 00:38:13;;;;;;;5.37;3.87;;;-2.50;99.90;-3.00;101308.00;;;;4956871;28;87755;-66
2022/02/13 00:40:39;;;;;;;6.30;4.13;;;-2.60;99.90;-3.00;101301.00;;;;4956734;28;88171;-66
2022/02/13 00:43:05;;;;;;;8.03;4.83;;;-2.50;99.90;-3.00;101287.00;;;;4955561;28;115115;-66
2022/02/13 00:45:31;;;;;;;11.43;5.67;;;-2.60;99.90;-3.00;101294.00;;;;4956405;28;89401;-66
2022/02/13 00:47:57;;;;;;;22.10;12.07;;;-1.60;99.90;-3.10;101293.00;;;;4956726;28;87091;-65
2022/02/13 00:50:24;;;;;;;15.27;10.67;;;-2.60;99.90;-3.10;101291.00;;;;4956544;28;88051;-65
2022/02/13 00:52:50;;;;;;;12.30;6.67;;;-2.60;99.90;-3.10;101287.00;;;;4955414;28;87910;-66
2022/02/13 00:55:15;;;;;;;5.93;4.60;;;-2.60;99.90;-3.10;101291.00;;;;4954372;28;94157;-66
2022/02/13 00:57:41;;;;;;;7.53;4.47;;;-2.60;99.90;-3.10;101288.00;;;;4955780;28;110748;-66
2022/02/13 01:00:08;;;;;;;7.03;4.50;;;-2.60;99.90;-3.10;101276.00;;;;4967068;28;87806;-66
2022/02/13 01:02:34;;;;;;;7.47;5.53;;;-2.60;99.90;-3.10;101280.00;;;;4975361;28;88050;-66
2022/02/13 01:04:59;;;;;;;9.73;5.17;;;-2.70;99.90;-3.00;101282.00;;;;4974652;28;117298;-66
2022/02/13 01:07:25;;;;;;;6.57;4.70;;;-2.60;99.90;-3.00;101283.00;;;;4976715;28;87784;-66
2022/02/13 01:09:51;;;;;;;6.97;5.87;;;-2.60;99.90;-3.00;101279.00;;;;4974892;28;87815;-66
2022/02/13 01:12:17;;;;;;;8.77;5.67;;;-2.50;99.90;-2.90;101276.00;;;;4976808;28;87003;-66
2022/02/13 01:14:43;;;;;;;6.20;5.00;;;-2.50;99.90;-2.90;101274.00;;;;4975466;28;87817;-66
2022/02/13 01:17:09;;;;;;;7.93;5.20;;;-2.50;99.90;-2.80;101269.00;;;;4973255;28;87720;-66
2022/02/13 01:19:35;;;;;;;6.67;5.00;;;-2.50;99.90;-2.80;101259.00;;;;4955852;28;88854;-66
2022/02/13 01:22:04;;;;;;;7.73;5.57;;;-2.50;99.90;-2.80;101253.00;;;;4956209;28;94006;-65
2022/02/13 01:24:34;;;;;;;9.50;5.17;;;-2.40;99.90;-2.70;101247.00;;;;4955717;28;87670;-67
2022/02/13 01:26:59;;;;;;;6.23;5.00;;;-2.20;99.90;-2.70;101238.00;;;;4955036;28;98818;-66
2022/02/13 01:29:25;;;;;;;7.50;6.03;;;-2.30;99.90;-2.70;101234.00;;;;4955488;28;108753;-66
2022/02/13 01:31:51;;;;;;;9.43;5.93;;;-2.20;99.90;-2.60;101235.00;;;;4955713;28;88025;-65
2022/02/13 01:34:18;;;;;;;9.53;5.80;;;-2.30;99.90;-2.60;101230.00;;;;4955488;28;87998;-65
2022/02/13 01:36:48;;;;;;;8.80;4.33;;;-2.20;99.90;-2.60;101237.00;;;;4958004;28;87068;-65
2022/02/13 01:39:15;;;;;;;9.50;4.27;;;-2.80;99.90;-2.50;101225.00;;;;4956080;28;94471;-65
2022/02/13 01:41:41;;;;;;;6.10;4.90;;;-2.10;99.90;-2.40;101231.00;;;;4956355;28;89440;-66
2022/02/13 01:44:26;;;;;;;9.63;4.87;;;-2.20;99.90;-2.40;101232.00;;;;4954732;28;88702;-65
2022/02/13 01:46:53;;;;;;;6.13;4.30;;;-2.00;99.90;-2.30;101225.00;;;;4975605;28;87885;-66
2022/02/13 01:49:19;;;;;;;5.90;4.50;;;-2.00;99.90;-2.30;101226.00;;;;4962170;28;87972;-65
2022/02/13 01:51:45;;;;;;;9.13;4.40;;;-1.90;99.90;-2.30;101214.00;;;;4956491;28;93646;-66
2022/02/13 01:54:11;;;;;;;7.47;3.57;;;-1.90;99.90;-2.30;101222.00;;;;4957176;28;117780;-66
2022/02/13 01:56:38;;;;;;;5.97;4.67;;;-1.80;99.90;-2.30;101210.00;;;;4975732;28;88015;-65
2022/02/13 01:59:06;;;;;;;8.57;5.10;;;-1.90;99.90;-2.20;101204.00;;;;4974650;28;91849;-67
2022/02/13 02:01:32;;;;;;;5.07;4.57;;;-1.80;99.90;-2.10;101201.00;;;;4975744;28;88308;-67
2022/02/13 02:03:58;;;;;;;7.60;4.47;;;-1.70;99.90;-2.10;101203.00;;;;4974155;28;95614;-67
2022/02/13 02:06:24;;;;;;;5.97;4.20;;;-1.70;99.90;-2.00;101192.00;;;;4958716;28;87886;-67
2022/02/13 02:08:50;;;;;;;4.70;3.90;;;-1.60;99.90;-2.00;101195.00;;;;4954776;28;94622;-67
2022/02/13 02:11:16;;;;;;;5.93;4.20;;;-1.70;99.90;-2.00;101205.00;;;;4954293;28;117082;-67
2022/02/13 02:13:41;;;;;;;5.73;3.27;;;-1.50;99.90;-2.00;101208.00;;;;4966217;28;117691;-67
2022/02/13 02:16:08;;;;;;;7.70;4.70;;;-1.60;99.90;-2.00;101211.00;;;;4954891;28;110388;-67
2022/02/13 02:18:34;;;;;;;5.50;4.60;;;-1.60;99.90;-2.00;101188.00;;;;4955218;28;87981;-67
2022/02/13 02:21:03;;;;;;;5.27;4.33;;;-1.50;99.90;-1.90;101195.00;;;;4956080;28;104754;-67
2022/02/13 02:23:29;;;;;;;9.00;5.87;;;-1.60;99.90;-1.90;101200.00;;;;4956388;28;88698;-67
2022/02/13 02:25:55;;;;;;;5.30;4.80;;;-1.30;99.90;-1.90;101185.00;;;;4955024;28;110927;-67
2022/02/13 02:28:21;;;;;;;6.50;5.00;;;-1.50;99.90;-1.90;101183.00;;;;4954406;28;107874;-67
2022/02/13 02:30:46;;;;;;;8.23;4.90;;;-1.50;99.90;-1.90;101173.00;;;;4954276;28;117061;-67
2022/02/13 02:33:13;;;;;;;5.90;4.23;;;-1.50;99.90;-1.80;101167.00;;;;4953794;28;117598;-67
2022/02/13 02:35:39;;;;;;;8.40;4.07;;;-1.40;99.90;-1.80;101162.00;;;;4958730;28;104507;-67
2022/02/13 02:38:05;;;;;;;8.27;4.87;;;-1.40;99.90;-1.80;101164.00;;;;4970050;28;87925;-67
2022/02/13 02:40:31;;;;;;;8.67;5.43;;;-1.40;99.90;-1.80;101172.00;;;;4959438;28;117526;-67
2022/02/13 02:42:57;;;;;;;7.43;5.13;;;-1.30;99.90;-1.80;101166.00;;;;4957436;28;105681;-67
2022/02/13 02:45:22;;;;;;;6.37;4.43;;;-1.40;99.90;-1.80;101164.00;;;;4957201;28;110003;-67
2022/02/13 02:47:48;;;;;;;8.67;4.70;;;-1.40;99.90;-1.80;101167.00;;;;4957311;28;109037;-67
2022/02/13 02:50:15;;;;;;;7.10;4.27;;;-1.40;99.90;-1.90;101169.00;;;;4957239;28;116971;-67
2022/02/13 02:52:41;;;;;;;5.20;4.07;;;-1.50;99.90;-1.90;101165.00;;;;4958154;28;87880;-67
2022/02/13 02:55:08;;;;;;;6.23;4.60;;;-1.50;99.90;-1.90;101158.00;;;;4958685;28;87728;-65
2022/02/13 02:57:34;;;;;;;5.00;4.27;;;-1.50;99.90;-1.80;101153.00;;;;4957469;28;88771;-67
2022/02/13 03:00:01;;;;;;;6.40;4.17;;;-1.50;99.90;-1.80;101156.00;;;;4958368;28;88170;-67
2022/02/13 03:02:26;;;;;;;7.80;5.10;;;-1.40;99.90;-1.70;101157.00;;;;4958374;28;87818;-66
2022/02/13 03:04:52;;;;;;;7.00;4.27;;;-1.40;99.90;-1.70;101162.00;;;;4957635;28;105404;-66
2022/02/13 03:07:18;;;;;;;4.07;3.67;;;-1.30;99.90;-1.70;101155.00;;;;4957704;28;109075;-66
2022/02/13 03:09:43;;;;;;;6.83;4.40;;;-1.30;99.90;-1.70;101151.00;;;;4974658;28;88066;-66
2022/02/13 03:12:09;;;;;;;5.20;4.10;;;-0.90;99.90;-1.60;101164.00;;;;4991381;28;117365;-66
2022/02/13 03:14:35;;;;;;;6.63;4.33;;;-1.30;99.90;-1.60;101144.00;;;;4977789;28;97142;-65
2022/02/13 03:17:03;;;;;;;5.40;3.73;;;-0.70;99.90;-1.60;101143.00;;;;4978184;28;87759;-64
2022/02/13 03:19:29;;;;;;;6.03;3.90;;;-1.20;99.90;-1.60;101137.00;;;;4975513;28;87846;-67
2022/02/13 03:21:55;;;;;;;6.80;4.43;;;-1.20;99.90;-1.60;101120.00;;;;4975518;28;116777;-64
2022/02/13 03:24:21;;;;;;;6.03;4.03;;;-1.30;99.90;-1.60;101114.00;;;;4976454;28;109774;-64
2022/02/13 03:26:48;;;;;;;5.80;3.63;;;-0.40;99.90;-1.50;101124.00;;;;4967027;28;109515;-65
2022/02/13 03:29:14;;;;;;;5.13;4.03;;;-1.10;99.90;-1.50;101126.00;;;;4960685;28;88081;-64
2022/02/13 03:31:41;;;;;;;5.07;4.00;;;-1.20;99.90;-1.50;101119.00;;;;4977822;28;88284;-65
2022/02/13 03:34:16;;;;;;;6.53;4.40;;;-1.20;99.90;-1.50;101117.00;;;;4974702;28;96099;-65
2022/02/13 03:36:42;;;;;;;5.83;4.07;;;-1.00;99.90;-1.40;101116.00;;;;4983675;28;87930;-65
2022/02/13 03:39:08;;;;;;;7.63;4.30;;;-1.10;99.90;-1.40;101122.00;;;;4976201;28;88613;-65
2022/02/13 03:41:34;;;;;;;5.67;4.00;;;-1.10;99.90;-1.40;101120.00;;;;4977723;28;87795;-64
2022/02/13 03:44:00;;;;;;;7.00;3.97;;;-1.00;99.90;-1.40;101124.00;;;;4976102;28;87756;-64
2022/02/13 03:46:25;;;;;;;5.07;4.00;;;-1.00;99.90;-1.40;101120.00;;;;4960154;28;92392;-65
2022/02/13 03:48:51;;;;;;;4.83;3.33;;;-1.00;99.90;-1.30;101114.00;;;;4956148;28;115791;-65
2022/02/13 03:51:17;;;;;;;5.10;3.40;;;-1.00;99.90;-1.30;101112.00;;;;4955790;28;115948;-64
2022/02/13 03:53:42;;;;;;;5.17;3.57;;;-0.90;99.90;-1.30;101116.00;;;;4957678;28;87756;-65
2022/02/13 03:56:08;;;;;;;5.93;3.73;;;-1.00;99.90;-1.30;101113.00;;;;4957718;28;87852;-65
2022/02/13 03:58:34;;;;;;;9.13;4.73;;;-0.90;99.90;-1.20;101110.00;;;;4957719;28;87979;-66
2022/02/13 04:01:00;;;;;;;5.70;4.23;;;-0.90;99.90;-1.10;101113.00;;;;4973717;28;118860;-66
2022/02/13 04:03:29;;;;;;;4.73;3.73;;;-0.80;99.90;-1.10;101105.00;;;;4974257;28;87234;-66
2022/02/13 04:05:55;;;;;;;8.13;4.23;;;-0.80;99.90;-1.10;101102.00;;;;4973423;28;108631;-65
2022/02/13 04:08:24;;;;;;;3.63;3.27;;;-0.80;99.90;-1.00;101094.00;;;;4976540;28;88660;-64
2022/02/13 04:10:50;;;;;;;3.63;3.33;;;-0.70;99.90;-1.00;101106.00;;;;4975669;28;88779;-65
2022/02/13 04:13:16;;;;;;;4.67;4.10;;;-0.30;99.90;-0.90;101083.00;;;;4976655;28;88889;-64
2022/02/13 04:15:42;;;;;;;4.90;3.87;;;-0.50;99.90;-0.80;101093.00;;;;4976321;28;92005;-65
2022/02/13 04:18:18;;;;;;;5.17;3.30;;;-0.60;99.90;-0.80;101100.00;;;;4975985;28;116810;-65
2022/02/13 04:20:44;;;;;;;5.20;3.67;;;-0.50;99.90;-0.80;101101.00;;;;4958720;28;89390;-67
2022/02/13 04:23:10;;;;;;;5.00;4.47;;;-0.50;99.90;-0.70;101102.00;;;;4968434;28;87989;-65
2022/02/13 04:25:37;;;;;;;6.77;3.63;;;-0.40;99.90;-0.70;101102.00;;;;4976757;28;87756;-65
2022/02/13 04:28:04;;;;;;;5.37;3.90;;;-0.40;99.90;-0.70;101101.00;;;;4991112;28;87110;-66
2022/02/13 04:30:30;;;;;;;5.37;3.57;;;-0.40;99.90;-0.70;101096.00;;;;4976516;28;103425;-66
2022/02/13 04:32:56;;;;;;;5.40;4.13;;;-0.40;99.90;-0.70;101088.00;;;;4958220;28;89607;-67
2022/02/13 04:35:27;;;;;;;5.33;3.87;;;-0.40;99.90;-0.70;101085.00;;;;4968713;28;88759;-66
2022/02/13 04:37:55;;;;;;;5.73;4.27;;;-0.30;99.90;-0.70;101087.00;;;;4990981;28;88846;-67
2022/02/13 04:40:21;;;;;;;7.70;3.83;;;0.70;99.90;-0.70;101083.00;;;;4975290;28;87730;-66
2022/02/13 04:42:47;;;;;;;6.33;4.23;;;-0.30;99.90;-0.70;101073.00;;;;4990695;28;107339;-66
2022/02/13 04:45:13;;;;;;;4.40;3.50;;;-0.40;99.90;-0.60;101063.00;;;;4976606;28;87803;-66
2022/02/13 04:47:40;;;;;;;6.20;4.07;;;-0.30;99.90;-0.60;101062.00;;;;4974403;28;88108;-66
2022/02/13 04:50:07;;;;;;;7.37;4.57;;;0.70;99.90;-0.60;101055.00;;;;4976223;28;87965;-66
2022/02/13 04:52:33;;;;;;;8.33;4.27;;;-0.30;99.90;-0.60;101058.00;;;;4976456;28;87275;-65
2022/02/13 04:54:59;;;;;;;5.20;4.10;;;-0.30;99.90;-0.60;101057.00;;;;4966508;28;102817;-65
2022/02/13 04:57:25;;;;;;;5.40;3.97;;;-0.40;99.90;-0.60;101053.00;;;;4955655;28;117982;-65
2022/02/13 04:59:51;;;;;;;6.40;4.17;;;-0.40;99.90;-0.60;101052.00;;;;4967021;28;88941;-67
2022/02/13 05:02:16;;;;;;;4.20;3.70;;;-0.30;99.90;-0.60;101047.00;;;;4974637;28;110092;-66
2022/02/13 05:04:42;;;;;;;5.03;3.77;;;-0.30;99.90;-0.70;101042.00;;;;4975403;28;108752;-65
2022/02/13 05:07:08;;;;;;;6.60;4.53;;;-0.30;99.90;-0.70;101051.00;;;;4974138;28;118421;-65
2022/02/13 05:09:33;;;;;;;6.97;4.37;;;0.40;99.90;-0.70;101032.00;;;;4976355;28;89262;-65
2022/02/13 05:11:59;;;;;;;6.10;4.53;;;-0.30;99.90;-0.70;101036.00;;;;4975091;28;110292;-65
2022/02/13 05:14:25;;;;;;;5.17;3.40;;;-0.30;99.90;-0.70;101037.00;;;;4973388;28;106939;-65
2022/02/13 05:16:51;;;;;;;9.40;4.53;;;-0.40;99.90;-0.70;101035.00;;;;4975355;28;117010;-65
2022/02/13 05:19:17;;;;;;;5.33;3.63;;;-0.40;99.90;-0.70;101021.00;;;;4976095;28;87899;-64
2022/02/13 05:21:44;;;;;;;6.03;3.77;;;-0.40;99.90;-0.80;101012.00;;;;4975559;28;109103;-64
2022/02/13 05:24:09;;;;;;;6.13;3.60;;;-0.50;99.90;-0.80;101019.00;;;;4973674;28;89181;-66
2022/02/13 05:26:36;;;;;;;6.83;4.07;;;-0.40;99.90;-0.80;101015.00;;;;4972968;28;116936;-64
2022/02/13 05:29:02;;;;;;;5.63;3.73;;;-0.40;99.90;-0.80;101015.00;;;;4971304;28;99974;-67
2022/02/13 05:31:30;;;;;;;5.67;4.43;;;-0.50;99.90;-0.90;101005.00;;;;4973049;28;110062;-64
2022/02/13 05:34:00;;;;;;;3.77;3.37;;;-0.50;99.90;-0.90;101005.00;;;;4975233;28;87761;-65
2022/02/13 05:36:26;;;;;;;3.93;3.13;;;-0.60;99.90;-0.90;101015.00;;;;4975388;28;88720;-65
2022/02/13 05:38:52;;;;;;;5.17;3.97;;;-0.60;99.90;-0.90;101000.00;;;;4973855;28;88787;-65
2022/02/13 05:41:18;;;;;;;5.67;3.70;;;-0.60;99.90;-1.00;101005.00;;;;4974894;28;108808;-67
2022/02/13 05:43:43;;;;;;;5.03;4.00;;;-0.40;99.90;-0.90;101001.00;;;;4989914;28;108378;-66
2022/02/13 05:46:10;;;;;;;6.13;4.17;;;-0.60;99.90;-1.00;101002.00;;;;4974203;28;117127;-66
2022/02/13 05:48:36;;;;;;;5.53;4.00;;;-0.60;99.90;-1.00;101005.00;;;;4975200;28;89217;-65
2022/02/13 05:51:02;;;;;;;6.37;3.70;;;-0.60;99.90;-1.00;100991.00;;;;4975464;28;87980;-64
2022/02/13 05:53:28;;;;;;;5.60;3.30;;;-0.70;99.90;-1.00;100994.00;;;;4975528;28;87665;-65
2022/02/13 05:55:54;;;;;;;4.30;3.53;;;-0.60;99.90;-1.00;101000.00;;;;4971283;28;89128;-65
2022/02/13 05:58:20;;;;;;;9.30;4.10;;;-0.70;99.90;-1.00;101002.00;;;;4955477;28;87844;-65
2022/02/13 06:00:46;;;;;;;6.93;4.30;;;-0.60;99.90;-1.00;100987.00;;;;4955052;28;111388;-65
2022/02/13 06:03:12;;;;;;;9.63;5.13;;;-0.70;99.90;-1.00;100994.00;;;;4954797;28;108725;-66
2022/02/13 06:05:38;;;;;;;5.97;3.60;;;-0.70;99.90;-1.10;100993.00;;;;4957364;28;87112;-66
2022/02/13 06:08:04;;;;;;;5.00;3.03;;;-0.30;99.90;-1.10;100985.00;;;;4966303;28;87837;-66
2022/02/13 06:10:30;;;;;;;6.73;4.03;;;-0.70;99.90;-1.10;100990.00;;;;4975307;28;94378;-67
2022/02/13 06:12:55;;;;;;;6.30;3.37;;;-0.80;99.90;-1.20;100990.00;;;;4974565;28;108095;-67
2022/02/13 06:15:21;;;;;;;4.77;3.50;;;-0.80;99.90;-1.20;100981.00;;;;4976739;28;116686;-67
2022/02/13 06:17:47;;;;;;;7.80;3.50;;;-0.90;99.90;-1.20;100987.00;;;;4989149;28;97625;-66
2022/02/13 06:20:13;;;;;;;3.70;3.40;;;-0.70;99.90;-1.20;100980.00;;;;4969319;28;87756;-67
2022/02/13 06:22:39;;;;;;;7.63;3.93;;;-0.90;99.90;-1.20;100985.00;;;;4963592;28;87774;-66
2022/02/13 06:25:06;;;;;;;7.00;3.90;;;-0.90;99.90;-1.30;100979.00;;;;4978448;28;88606;-65
2022/02/13 06:27:32;;;;;;;4.40;3.63;;;-1.20;99.90;-1.30;100990.00;;;;4971506;28;104391;-66
2022/02/13 06:29:57;;;;;;;7.87;3.90;;;-0.80;99.90;-1.30;100988.00;;;;4967741;28;110063;-66
2022/02/13 06:32:23;;;;;;;6.53;3.50;;;-0.90;99.90;-1.30;100982.00;;;;4977846;28;107642;-67
2022/02/13 06:34:49;;;;;;;6.20;3.73;;;-1.00;99.90;-1.30;100976.00;;;;4978161;28;88241;-66
2022/02/13 06:37:14;;;;;;;4.80;3.43;;;-0.90;99.90;-1.30;100968.00;;;;4976656;28;117996;-66
2022/02/13 06:39:40;;;;;;;5.73;4.23;;;-0.90;99.90;-1.40;100975.00;;;;4976203;28;91429;-65
2022/02/13 06:42:06;;;;;;;8.83;4.50;;;-0.90;99.90;-1.40;100966.00;;;;4979652;28;87888;-65
2022/02/13 06:44:32;;;;;;;3.70;3.40;;;-1.00;99.90;-1.40;100970.00;;;;4977421;28;104917;-67
2022/02/13 06:46:58;;;;;;;5.13;3.73;;;-1.00;99.90;-1.30;100972.00;;;;4976027;28;118053;-66
2022/02/13 06:49:24;;;;;;;4.13;2.90;;;-1.00;99.90;-1.30;100976.00;;;;4976144;28;87856;-66
2022/02/13 06:51:50;;;;;;;5.33;3.73;;;-1.00;99.90;-1.30;100960.00;;;;4973706;28;108897;-64
2022/02/13 06:54:15;;;;;;;7.00;4.47;;;-1.80;99.90;-1.20;100961.00;;;;4974789;28;87406;-64
2022/02/13 06:56:41;;;;;;;5.87;4.13;;;-0.90;99.90;-1.20;100956.00;;;;4975264;28;88103;-64
2022/02/13 06:59:07;;;;;;;5.03;3.67;;;-0.90;99.90;-1.10;100957.00;;;;4970446;28;93296;-65
2022/02/13 07:01:32;;;;;;;6.20;3.67;;;-0.70;99.90;-1.00;100958.00;;;;4973634;28;88734;-68
2022/02/13 07:03:58;;;;;;;3.60;3.00;;;-0.80;99.90;-1.00;100953.00;;;;4972663;28;116954;-65
2022/02/13 07:06:24;;;;;;;5.70;3.90;;;-0.70;99.90;-0.90;100952.00;;;;4973459;28;118397;-64
2022/02/13 07:08:50;;;;;;;6.60;4.00;;;-0.10;99.90;-0.70;100954.00;;;;4974060;28;87740;-65
2022/02/13 07:11:15;;;;;;;5.80;3.53;;;-0.40;99.90;-0.50;100967.00;;;;4972166;28;87883;-65
2022/02/13 07:13:41;;;;;;;5.83;3.00;;;-0.30;99.90;-0.40;100955.00;;;;4971577;28;117652;-66
2022/02/13 07:16:07;;;;;;;6.27;3.40;;;-0.10;99.90;-0.20;100944.00;;;;4970094;28;106133;-65
2022/02/13 07:18:33;;;;;;;5.43;3.13;;;0.00;99.90;-0.10;100947.00;;;;4975446;28;87207;-65
2022/02/13 07:20:58;;;;;;;7.87;4.07;;;0.10;99.90;0.10;100940.00;;;;4973919;28;107978;-66
2022/02/13 07:23:25;;;;;;;6.87;3.57;;;0.30;99.90;0.20;100936.00;;;;4972968;28;117107;-65
2022/02/13 07:25:54;;;;;;;6.00;3.47;;;0.40;99.90;0.30;100941.00;;;;4973003;28;88883;-65
2022/02/13 07:31:04;;;;;;;7.60;4.20;;;1.70;99.90;0.50;100932.00;;;;4965669;28;87833;-65
2022/02/13 07:33:29;;;;;;;5.03;3.50;;;0.70;99.90;0.60;100939.00;;;;4973060;28;115782;-65
2022/02/13 07:35:56;;;;;;;4.97;3.77;;;0.80;99.90;0.80;100947.00;;;;4970689;28;112531;-64
2022/02/13 07:38:22;;;;;;;4.27;3.57;;;1.00;99.90;1.00;100940.00;;;;4969258;28;87981;-66
2022/02/13 07:40:47;;;;;;;5.47;4.57;;;1.10;99.90;1.10;100933.00;;;;4980995;28;108218;-65
2022/02/13 07:43:15;;;;;;;8.40;4.80;;;2.30;99.90;1.30;100943.00;;;;4973451;28;116525;-65
2022/02/13 07:45:41;;;;;;;5.40;3.93;;;1.60;99.90;1.50;100941.00;;;;4971376;28;87762;-65
2022/02/13 07:48:09;;;;;;;8.03;4.67;;;1.90;99.90;1.70;100941.00;;;;4971187;28;87922;-65
2022/02/13 07:50:35;;;;;;;12.53;4.50;;;1.90;99.90;1.90;100933.00;;;;4974070;28;88731;-64
2022/02/13 07:53:01;;;;;;;6.67;3.53;;;2.30;99.90;2.10;100939.00;;;;4972387;28;117114;-64
2022/02/13 07:55:28;;;;;;;5.90;4.00;;;2.30;99.90;2.20;100932.00;;;;4971226;28;88552;-67
2022/02/13 07:57:54;;;;;;;5.57;4.13;;;2.90;99.90;2.40;100929.00;;;;4968058;28;87749;-65
2022/02/13 08:00:20;;;;;;;3.90;3.07;;;3.30;99.90;2.70;100937.00;;;;4973280;28;102421;-65
2022/02/13 08:02:45;;;;;;;5.37;3.73;;;2.80;99.90;2.90;100947.00;;;;4973834;28;88953;-65
2022/02/13 08:05:11;;;;;;;5.27;3.83;;;3.50;99.90;3.10;100930.00;;;;4968334;28;116929;-65
2022/02/13 08:07:47;;;;;;;5.10;3.37;;;3.30;99.90;3.30;100935.00;;;;4971143;28;103327;-64
2022/02/13 08:10:17;;;;;;;4.23;3.13;;;4.10;99.90;3.50;100930.00;;;;4971444;28;87495;-66
2022/02/13 08:12:44;;;;;;;5.17;3.53;;;3.60;99.90;3.60;100937.00;;;;4973231;28;88406;-66
2022/02/13 08:15:10;;;;;;;5.37;3.23;;;3.80;99.90;3.80;100932.00;;;;4972783;28;96546;-66
2022/02/13 08:17:35;;;;;;;5.37;3.43;;;3.90;99.90;4.00;100914.00;;;;4973104;28;87954;-66
2022/02/13 08:20:05;;;;;;;4.40;2.77;;;4.20;99.90;4.20;100928.00;;;;4966692;28;88906;-67
2022/02/13 08:22:35;;;;;;;5.33;3.30;;;4.30;99.90;4.40;100921.00;;;;4973497;28;88822;-68
2022/02/13 08:25:02;;;;;;;5.50;3.40;;;4.60;99.90;4.50;100924.00;;;;4965737;28;88002;-66
2022/02/13 08:27:28;;;;;;;5.13;3.43;;;4.70;99.90;4.70;100921.00;;;;4973532;28;88064;-69
2022/02/13 08:29:53;;;;;;;5.20;3.70;;;5.40;99.70;4.80;100920.00;;;;4968877;28;107914;-67
2022/02/13 08:32:19;;;;;;;4.93;4.13;;;4.90;98.80;5.00;100925.00;;;;4974675;28;94415;-68
2022/02/13 08:34:45;;;;;;;6.10;4.00;;;5.10;97.40;5.10;100919.00;;;;4972957;28;87892;-68
2022/02/13 08:37:12;;;;;;;13.17;6.90;;;5.20;97.60;5.30;100915.00;;;;4971098;28;88002;-67
2022/02/13 08:39:39;;;;;;;7.50;3.87;;;5.40;96.70;5.50;100928.00;;;;4972884;28;88897;-67
2022/02/13 08:42:05;;;;;;;5.83;3.80;;;5.60;93.60;5.60;100920.00;;;;4972767;28;104937;-68
2022/02/13 08:44:31;;;;;;;6.37;4.10;;;5.70;94.30;5.70;100915.00;;;;4971472;28;103012;-68
2022/02/13 08:46:56;;;;;;;6.70;3.10;;;5.90;95.00;6.00;100918.00;;;;4973986;28;87825;-69
2022/02/13 08:49:22;;;;;;;8.00;4.10;;;6.00;92.20;6.10;100907.00;;;;4967613;28;87547;-68
2022/02/13 08:51:48;;;;;;;5.03;4.10;;;6.20;91.30;6.20;100909.00;;;;4970604;28;115238;-69
2022/02/13 08:54:13;;;;;;;4.30;3.50;;;6.30;91.50;6.40;100900.00;;;;4970063;28;109301;-69
2022/02/13 08:56:39;;;;;;;5.50;2.97;;;6.50;90.30;6.60;100912.00;;;;4974744;28;86944;-69
2022/02/13 08:59:05;;;;;;;7.00;3.43;;;6.70;85.90;6.60;100903.00;;;;4971293;28;87929;-68
2022/02/13 09:01:31;;;;;;;3.67;2.90;;;6.70;84.30;6.70;100899.00;;;;4962425;28;109264;-69
2022/02/13 09:03:56;;;;;;;4.63;2.87;;;6.90;83.30;6.80;100895.00;;;;4969690;28;110587;-69
2022/02/13 09:06:22;;;;;;;5.00;3.63;;;7.00;80.40;6.90;100895.00;;;;4970395;28;110282;-70
2022/02/13 09:08:49;;;;;;;7.30;3.10;;;7.00;80.40;7.00;100895.00;;;;4969148;28;87933;-69
2022/02/13 09:11:14;;;;;;;4.07;2.90;;;7.30;78.80;7.10;100897.00;;;;4969027;28;103381;-69
2022/02/13 09:13:40;;;;;;;4.03;2.90;;;7.10;78.20;7.20;100892.00;;;;4972420;28;88083;-70
2022/02/13 09:16:06;;;;;;;4.03;2.83;;;7.30;79.00;7.40;100898.00;;;;4968787;28;111544;-68
2022/02/13 09:18:32;;;;;;;5.37;2.87;;;7.40;78.30;7.60;100891.00;;;;4971726;28;87697;-70
2022/02/13 09:20:58;;;;;;;2.60;2.40;;;7.60;78.30;7.70;100885.00;;;;4972951;28;87368;-70
2022/02/13 09:23:24;;;;;;;6.63;2.90;;;7.70;73.60;7.90;100873.00;;;;4970621;28;116667;-70
2022/02/13 09:25:50;;;;;;;4.00;2.90;;;7.90;75.10;8.10;100877.00;;;;4972462;28;93129;-68
2022/02/13 09:28:17;;;;;;;5.40;2.73;;;8.00;74.20;8.20;100872.00;;;;4966664;28;90763;-68
2022/02/13 09:30:46;;;;;;;4.30;3.07;;;8.20;73.70;8.30;100879.00;;;;4961616;28;88025;-69
2022/02/13 09:33:13;;;;;;;3.53;2.70;;;8.40;71.00;8.40;100870.00;;;;4970353;28;89614;-68
2022/02/13 09:35:39;;;;;;;6.93;3.20;;;8.40;68.60;8.50;100880.00;;;;4972580;28;87775;-67
2022/02/13 09:38:05;;;;;;;4.20;3.07;;;8.50;68.20;8.60;100876.00;;;;4965278;28;110022;-67
2022/02/13 09:40:33;;;;;;;3.50;2.57;;;8.60;68.60;8.70;100869.00;;;;4971770;28;110759;-69
2022/02/13 09:43:03;;;;;;;4.67;2.40;;;8.60;65.90;8.80;100882.00;;;;4971635;28;87896;-71
2022/02/13 09:45:31;;;;;;;3.50;2.93;;;8.80;67.30;8.90;100877.00;;;;4967112;28;87198;-68
2022/02/13 09:48:03;;;;;;;2.97;2.23;;;8.80;65.30;9.00;100864.00;;;;4955009;28;87863;-69
2022/02/13 09:50:30;;;;;;;5.53;3.03;;;9.00;63.60;9.10;100868.00;;;;4974593;28;107378;-68
2022/02/13 09:52:57;;;;;;;4.53;3.17;;;9.00;64.00;9.20;100874.00;;;;4968354;28;88904;-70
2022/02/13 09:55:26;;;;;;;5.17;2.37;;;9.20;63.70;9.30;100880.00;;;;4990085;28;88018;-69
2022/02/13 09:58:03;;;;;;;4.33;2.17;;;9.30;61.90;9.60;100877.00;;;;4975450;28;87927;-68
2022/02/13 10:00:48;;;;;;;5.40;2.73;;;9.50;61.20;9.70;100874.00;;;;4972093;28;88001;-70
2022/02/13 10:03:23;;;;;;;3.03;2.07;;;9.60;60.10;9.80;100867.00;;;;4968343;28;87687;-67
2022/02/13 10:05:51;;;;;;;5.57;3.13;;;9.70;59.50;9.90;100869.00;;;;4986158;28;87894;-68
2022/02/13 10:08:33;;;;;;;4.03;2.03;;;9.80;58.50;10.00;100860.00;;;;4974949;28;88045;-69
2022/02/13 10:11:33;;;;;;;4.80;2.47;;;10.00;58.00;10.10;100855.00;;;;4972186;28;86976;-68
2022/02/13 10:14:13;;;;;;;4.40;3.10;;;10.20;57.50;10.20;100861.00;;;;4973934;28;87886;-69
2022/02/13 10:16:45;;;;;;;3.13;2.10;;;10.20;56.30;10.30;100864.00;;;;4974086;28;87847;-70
2022/02/13 10:19:19;;;;;;;3.03;1.97;;;10.10;56.10;10.40;100852.00;;;;4969073;28;88945;-68
2022/02/13 10:21:55;;;;;;;2.67;2.20;;;10.40;54.80;10.50;100855.00;;;;4967847;28;88721;-69
2022/02/13 10:24:36;;;;;;;2.00;1.90;;;10.50;53.50;10.50;100855.00;;;;4974099;28;88437;-70
2022/02/13 10:27:15;;;;;;;2.20;1.77;;;10.50;53.40;10.60;100850.00;;;;4975523;28;87733;-70
2022/02/13 10:29:53;;;;;;;2.40;1.87;;;10.60;54.30;10.70;100833.00;;;;4970911;28;87787;-68
2022/02/13 10:32:31;;;;;;;3.47;1.97;;;10.60;52.80;10.60;100837.00;;;;4972952;28;90164;-68
2022/02/13 10:35:15;;;;;;;2.17;1.83;;;10.60;52.80;10.70;100817.00;;;;4987152;28;87888;-68
2022/02/13 10:37:54;;;;;;;2.20;1.97;;;10.70;52.20;10.70;100814.00;;;;4990139;28;86982;-68
2022/02/13 10:40:26;;;;;;;2.33;2.03;;;10.70;52.30;10.70;100816.00;;;;4972641;28;87868;-69
2022/02/13 10:43:09;;;;;;;5.73;2.13;;;10.70;52.10;10.80;100815.00;;;;4988837;28;104710;-70
2022/02/13 10:45:40;;;;;;;2.53;2.17;;;10.80;52.30;10.80;100810.00;;;;4982829;28;88798;-69
2022/02/13 10:48:08;;;;;;;3.50;2.07;;;10.80;52.30;10.90;100807.00;;;;4972486;28;88107;-69
2022/02/13 10:50:40;;;;;;;7.37;2.30;;;10.80;51.60;10.90;100806.00;;;;4989096;28;87709;-68